Latest Weather Observations for Cabramurra

IDN60901

Issued at 5:41 am EST Friday 20 May 2022 (issued every 10 minutes, with the page automatically refreshed every 10 minutes)

About weather observations | Map of Canberra area stations | Latest observations for Canberra area | Other Formats
Station Details ID: 072161 Name: CABRAMURRA SMHEA AWS Lat: -35.94 Lon: 148.38 Height: 1482.4 m
Data from the previous 72 hours. | See also: Recent months at Cabramurra
Date/Time
EST
Temp
°C
App
Temp
°C
Dew
Point
°C
Rel
Hum
%
Delta-T
°C
Wind Press
QNH
hPa
Press
MSL
hPa
Rain since
9am
mm
Dir  Spd
km/h
Gust
km/h
Spd
kts
Gust
kts
20/05:30am -0.2 -11.0 -0.3 99 0.0 ESE 46 61 25 33 - - 0.0
20/05:00am -0.4 -10.6 -0.5 99 0.0 ESE 43 61 23 33 - - 0.0
20/04:30am -0.3 -11.8 -0.4 99 0.0 ESE 50 69 27 37 - - 0.0
20/04:01am -0.3 -11.1 -0.4 99 0.0 ESE 46 65 25 35 - - 0.0
20/04:00am -0.3 -11.5 -0.4 99 0.0 ESE 48 65 26 35 - - 0.0
20/03:30am -0.2 -8.9 -0.3 99 0.0 ESE 35 54 19 29 - - 0.0
20/03:00am 0.1 -8.5 0.0 99 0.0 SE 35 54 19 29 - - 0.0
20/02:31am 0.3 -11.2 0.2 99 0.0 ESE 50 69 27 37 - - 0.0
20/02:30am 0.2 -11.6 0.1 99 0.0 ESE 52 69 28 37 - - 0.0
20/02:00am 0.0 -9.8 -0.1 99 0.0 ESE 41 65 22 35 - - 0.0
20/01:30am -0.1 -9.5 -0.2 99 0.0 ESE 39 57 21 31 - - 0.0
20/01:15am 0.2 -9.2 -0.2 97 0.2 ESE 39 57 21 31 - - 0.0
20/01:00am 0.2 -7.9 -0.6 94 0.3 SE 32 46 17 25 - - 0.0
20/12:30am 0.4 -8.7 -0.9 91 0.5 SE 37 57 20 31 - - 0.0
20/12:21am 0.5 -9.0 -0.8 91 0.5 ESE 39 57 21 31 - - 0.0
20/12:00am 0.4 -7.8 -1.0 90 0.6 ESE 32 44 17 24 - - 0.0
 
Date/Time
EST
Temp
°C
App
Temp
°C
Dew
Point
°C
Rel
Hum
%
Delta-T
°C
Wind Press
QNH
hPa
Press
MSL
hPa
Rain since
9am
mm
Dir  Spd
km/h
Gust
km/h
Spd
kts
Gust
kts
19/11:30pm 0.7 -6.0 -1.4 86 0.9 SE 24 37 13 20 - - 0.0
19/11:00pm 0.3 -5.4 -0.4 95 0.3 SE 19 35 10 19 - - 0.0
19/10:30pm 0.4 -7.6 0.1 98 0.1 ESE 32 50 17 27 - - 0.0
19/10:05pm 0.6 -7.6 0.5 99 0.0 SE 33 52 18 28 - - 0.0
19/10:00pm 0.5 -7.7 0.4 99 0.0 ESE 33 46 18 25 - - 0.0
19/09:30pm 0.7 -7.5 0.6 99 0.0 SE 33 44 18 24 - - 0.0
19/09:11pm 0.8 -7.3 0.7 99 0.0 SE 33 52 18 28 - - 0.0
19/09:00pm 1.0 -7.0 0.7 98 0.1 ESE 32 44 17 24 - - 0.0
19/08:30pm 1.4 -6.5 1.0 97 0.2 ESE 32 41 17 22 - - 0.0
19/08:00pm 2.1 -5.1 0.5 89 0.7 ESE 28 39 15 21 - - 0.0
19/07:30pm 2.4 -3.7 0.6 88 0.7 ESE 22 30 12 16 - - 0.0
19/07:00pm 2.6 -2.5 0.5 86 0.9 SE 17 26 9 14 - - 0.0
19/06:30pm 3.2 -1.3 -0.3 78 1.4 SE 13 19 7 10 - - 0.0
19/06:00pm 3.7 -1.3 -1.1 71 1.9 ESE 15 20 8 11 - - 0.0
19/05:30pm 3.9 -1.1 -1.1 70 2.0 ESE 15 20 8 11 - - 0.0
19/05:00pm 4.8 0.9 0.9 76 1.7 SE 11 19 6 10 - - 0.0
19/04:30pm 5.4 4.0 5.3 99 0.0 SW 2 9 1 5 - - 0.0
19/04:00pm 5.9 3.6 5.6 98 0.1 W 7 11 4 6 - - 0.0
19/03:30pm 5.3 3.4 4.7 96 0.3 W 4 9 2 5 - - 0.0
19/03:00pm 6.0 4.0 4.6 91 0.7 W 4 11 2 6 - - 0.0
19/02:30pm 5.8 2.9 4.9 94 0.4 WNW 9 13 5 7 - - 0.0
19/02:00pm 6.5 3.2 4.3 86 1.0 NW 11 19 6 10 - - 0.0
19/01:30pm 6.2 2.9 4.8 91 0.7 NW 11 17 6 9 - - 0.0
19/01:00pm 5.7 2.6 3.5 86 1.0 NW 9 13 5 7 - - 0.0
19/12:30pm 5.0 1.9 3.5 90 0.7 NW 9 15 5 8 - - 0.0
19/12:00pm 5.1 2.3 3.4 89 0.8 NNW 7 11 4 6 - - 0.0
19/11:30am 4.5 1.5 1.7 82 1.2 WNW 7 15 4 8 - - 0.0
19/11:00am 4.2 1.2 1.1 80 1.3 SSW 6 11 3 6 - - 0.0
19/10:30am 2.9 -0.5 -0.5 78 1.4 SSW 7 11 4 6 - - 0.0
19/10:00am 2.0 -2.4 -2.1 74 1.6 S 11 15 6 8 - - 0.0
19/09:30am 1.6 -2.1 0.0 89 0.6 SSE 9 13 5 7 - - 0.0
19/09:00am 0.6 -2.6 0.5 99 0.0 S 7 9 4 5 - - 5.0
19/08:30am -0.1 -4.6 -0.2 99 0.0 S 13 17 7 9 - - 5.0
19/08:00am -0.5 -4.3 -0.6 99 0.0 S 9 13 5 7 - - 5.0
19/07:30am -1.0 -4.8 -1.1 99 0.0 W 9 11 5 6 - - 5.0
19/07:00am -1.5 -6.2 -1.6 99 0.0 W 13 15 7 8 - - 5.0
19/06:30am -1.4 -5.7 -1.4 100 0.0 W 11 13 6 7 - - 5.0
19/06:00am -0.8 -5.4 -0.8 100 0.0 W 13 19 7 10 - - 5.0
19/05:30am -0.8 -4.2 -0.8 100 0.0 W 7 11 4 6 - - 5.0
19/05:00am -0.7 -4.5 -0.7 100 0.0 W 9 11 5 6 - - 5.0
19/04:30am -0.4 -4.2 -0.4 100 0.0 W 9 13 5 7 - - 5.0
19/04:00am 0.2 -2.9 0.2 100 0.0 W 6 11 3 6 - - 5.0
19/03:30am 0.1 -3.2 0.1 100 0.0 W 7 9 4 5 - - 5.0
19/03:00am 0.1 -2.6 0.1 100 0.0 W 4 11 2 6 - - 5.0
19/02:30am 0.2 -3.8 0.2 100 0.0 WSW 11 20 6 11 - - 5.0
19/02:00am -0.1 -3.4 -0.1 100 0.0 WNW 7 11 4 6 - - 5.0
19/01:30am 0.3 -3.3 0.3 100 0.0 SW 9 15 5 8 - - 5.0
19/01:00am 0.4 -4.8 0.4 100 0.0 WSW 17 26 9 14 - - 5.0
19/12:30am 0.4 -3.6 0.4 100 0.0 W 11 19 6 10 - - 5.0
19/12:00am 0.5 -3.5 0.5 100 0.0 WSW 11 17 6 9 - - 5.0
 
Date/Time
EST
Temp
°C
App
Temp
°C
Dew
Point
°C
Rel
Hum
%
Delta-T
°C
Wind Press
QNH
hPa
Press
MSL
hPa
Rain since
9am
mm
Dir  Spd
km/h
Gust
km/h
Spd
kts
Gust
kts
18/11:30pm 0.5 -4.3 0.5 100 0.0 SW 15 24 8 13 - - 5.0
18/11:00pm 0.5 -4.3 0.5 100 0.0 SW 15 22 8 12 - - 5.0
18/10:30pm 0.6 -4.5 0.6 100 0.0 SSW 17 26 9 14 - - 5.0
18/10:00pm 0.6 -4.5 0.6 100 0.0 WSW 17 26 9 14 - - 5.0
18/09:30pm 0.7 -3.6 0.7 100 0.0 SW 13 26 7 14 - - 4.8
18/09:00pm 0.7 -4.4 0.7 100 0.0 SW 17 28 9 15 - - 4.8
18/08:30pm 0.8 -3.5 0.8 100 0.0 W 13 22 7 12 - - 4.8
18/08:00pm 0.8 -4.7 0.8 100 0.0 W 19 28 10 15 - - 4.8
18/07:30pm 0.9 -5.9 0.9 100 0.0 WSW 26 41 14 22 - - 4.8
18/07:00pm 0.9 -5.5 0.9 100 0.0 WSW 24 43 13 23 - - 4.8
18/06:30pm 1.1 -5.3 1.1 100 0.0 WSW 24 43 13 23 - - 4.8
18/06:00pm 1.2 -6.3 1.2 100 0.0 WSW 30 48 16 26 - - 4.8
18/05:35pm 1.3 -6.6 1.2 99 0.0 W 32 50 17 27 - - 4.8
18/05:30pm 1.3 -6.2 1.3 100 0.0 W 30 44 16 24 - - 4.8
18/05:11pm 1.4 -5.7 1.3 99 0.0 W 28 46 15 25 - - 4.8
18/05:00pm 1.4 -4.5 1.4 100 0.0 W 22 35 12 19 - - 4.8
18/04:30pm 1.6 -4.0 1.5 99 0.0 W 20 30 11 16 - - 4.8
18/04:00pm 1.7 -5.7 1.6 99 0.0 W 30 46 16 25 - - 4.8
18/03:55pm 1.6 -5.5 1.5 99 0.0 W 28 46 15 25 - - 4.8
18/03:30pm 2.2 -4.8 2.1 99 0.0 W 28 41 15 22 - - 4.8
18/03:11pm 1.7 -6.1 1.6 99 0.0 WSW 32 50 17 27 - - 4.8
18/03:07pm 1.6 -5.9 1.5 99 0.0 WSW 30 48 16 26 - - 4.8
18/03:00pm 1.7 -5.0 1.7 100 0.0 WSW 26 48 14 26 - - 4.8
18/02:30pm 1.6 -6.2 1.6 100 0.0 W 32 50 17 27 - - 4.8
18/02:19pm 1.6 -6.2 1.6 100 0.0 W 32 50 17 27 - - 4.8
18/02:00pm 1.9 -5.9 1.9 100 0.0 W 32 46 17 25 - - 4.8
18/01:30pm 2.3 -6.7 2.3 100 0.0 W 39 59 21 32 - - 4.8
18/01:00pm 1.6 -5.8 1.6 100 0.0 W 30 48 16 26 - - 4.8
18/12:30pm 1.4 -6.6 1.4 100 0.0 WSW 33 52 18 28 - - 4.8
18/12:03pm 1.3 -6.6 1.3 100 0.0 W 32 50 17 27 - - 4.6
18/12:00pm 1.0 -6.9 1.0 100 0.0 W 32 46 17 25 - - 4.6
18/11:30am 2.1 -5.8 2.1 100 0.0 W 33 59 18 32 - - 1.6
18/11:00am 1.8 -6.2 1.8 100 0.0 W 33 52 18 28 - - 1.2
18/10:30am 1.8 -7.3 1.8 100 0.0 W 39 61 21 33 - - 1.0
18/10:00am 1.7 -8.2 1.7 100 0.0 W 43 70 23 38 - - 1.0
18/09:30am 1.8 -7.7 1.8 100 0.0 WNW 41 65 22 35 - - 0.0
18/09:00am 1.5 -6.5 1.5 100 0.0 WNW 33 52 18 28 - - 1.0
18/08:31am 1.4 -6.4 1.4 100 0.0 WNW 32 59 17 32 - - 1.0
18/08:30am 1.4 -6.4 1.4 100 0.0 WNW 32 46 17 25 - - 1.0
18/08:00am 1.2 -5.2 1.2 100 0.0 W 24 41 13 22 - - 0.8
18/07:50am 1.1 -6.0 1.1 100 0.0 W 28 46 15 25 - - 0.8
18/07:41am 1.0 -7.5 1.0 100 0.0 W 35 54 19 29 - - 0.8
18/07:30am 1.0 -8.6 1.0 100 0.0 WNW 41 63 22 34 - - 0.8
18/07:01am 1.2 -8.0 1.2 100 0.0 WNW 39 57 21 31 - - 0.4
18/07:00am 1.2 -8.4 1.2 100 0.0 WNW 41 57 22 31 - - 0.4
18/06:49am 1.0 -7.1 1.0 100 0.0 WNW 33 52 18 28 - - 0.4
18/06:30am 1.0 -7.5 1.0 100 0.0 W 35 50 19 27 - - 0.4
18/06:00am 1.1 -8.5 1.1 100 0.0 W 41 63 22 34 - - 0.4
18/05:36am 1.2 -7.3 1.2 100 0.0 W 35 54 19 29 - - 0.0
18/05:30am 1.3 -7.9 1.3 100 0.0 W 39 54 21 29 - - 0.0
18/05:02am 1.2 -7.6 1.2 100 0.0 W 37 56 20 30 - - 0.0
18/05:00am 1.1 -8.1 1.1 100 0.0 W 39 56 21 30 - - 0.0
18/04:48am 1.1 -6.8 1.1 100 0.0 W 32 57 17 31 - - 0.0
18/04:30am 1.1 -7.4 1.1 100 0.0 W 35 52 19 28 - - 0.0
18/04:05am 1.1 -6.4 1.1 100 0.0 W 30 48 16 26 - - 0.0
18/04:00am 1.0 -7.5 1.0 100 0.0 W 35 50 19 27 - - 0.0
18/03:30am 1.1 -7.4 1.1 100 0.0 W 35 50 19 27 - - 0.0
18/03:04am 1.2 -8.4 1.2 100 0.0 W 41 61 22 33 - - 0.0
18/03:00am 1.2 -8.0 1.2 100 0.0 W 39 54 21 29 - - 0.0
18/02:35am 1.1 -7.4 1.1 100 0.0 WNW 35 54 19 29 - - 0.0
18/02:30am 1.0 -7.1 1.0 100 0.0 WNW 33 46 18 25 - - 0.0
18/02:08am 1.0 -7.5 1.0 100 0.0 WNW 35 54 19 29 - - 0.0
18/02:00am 1.0 -7.5 1.0 100 0.0 WNW 35 48 19 26 - - 0.0
18/01:37am 1.0 -6.5 1.0 100 0.0 W 30 50 16 27 - - 0.0
18/01:30am 0.9 -7.0 0.9 100 0.0 W 32 46 17 25 - - 0.0
18/01:00am 0.9 -6.6 0.9 100 0.0 W 30 41 16 22 - - 0.0
18/12:30am 1.0 -7.5 1.0 100 0.0 W 35 46 19 25 - - 0.0
18/12:02am 1.0 -6.9 1.0 100 0.0 W 32 52 17 28 - - 0.0
18/12:00am 1.0 -6.5 1.0 100 0.0 W 30 46 16 25 - - 0.0
 
Date/Time
EST
Temp
°C
App
Temp
°C
Dew
Point
°C
Rel
Hum
%
Delta-T
°C
Wind Press
QNH
hPa
Press
MSL
hPa
Rain since
9am
mm
Dir  Spd
km/h
Gust
km/h
Spd
kts
Gust
kts
17/11:30pm 1.0 -6.5 1.0 100 0.0 W 30 43 16 23 - - 0.0
17/11:26pm 0.9 -6.6 0.9 100 0.0 W 30 48 16 26 - - 0.0
17/11:00pm 1.0 -6.9 1.0 100 0.0 W 32 44 17 24 - - 0.0
17/10:30pm 1.2 -6.7 1.2 100 0.0 W 32 43 17 23 - - 0.0
17/10:00pm 1.2 -5.5 1.2 100 0.0 W 26 37 14 20 - - 0.0
17/09:30pm 1.2 -5.5 1.2 100 0.0 W 26 37 14 20 - - 0.0
17/09:00pm 1.2 -4.4 1.2 100 0.0 W 20 30 11 16 - - 0.0
17/08:30pm 1.2 -5.2 1.2 100 0.0 W 24 35 13 19 - - 0.0
17/08:00pm 1.5 -4.1 1.2 98 0.1 W 20 32 11 17 - - 0.0
17/07:30pm 1.4 -4.9 1.3 99 0.0 WSW 24 41 13 22 - - 0.0
17/07:00pm 1.4 -5.3 1.3 99 0.0 W 26 41 14 22 - - 0.0
17/06:30pm 1.4 -4.9 1.3 99 0.0 W 24 44 13 24 - - 0.0
17/06:00pm 1.4 -5.3 1.4 100 0.0 W 26 41 14 22 - - 0.0
17/05:30pm 1.4 -4.2 1.4 100 0.0 WSW 20 35 11 19 - - 0.0
17/05:00pm 1.6 -5.1 1.6 100 0.0 W 26 37 14 20 - - 0.0
17/04:30pm 1.8 -4.5 1.7 99 0.0 W 24 37 13 20 - - 0.0
17/04:00pm 2.1 -4.1 2.1 100 0.0 W 24 33 13 18 - - 0.0
17/03:30pm 2.2 -4.0 2.1 99 0.0 W 24 39 13 21 - - 0.0
17/03:00pm 3.2 -3.0 2.2 93 0.4 W 24 39 13 21 - - 0.0
17/02:30pm 2.4 -3.8 2.3 99 0.0 W 24 37 13 20 - - 0.0
17/02:10pm 2.1 -4.9 2.1 100 0.0 W 28 46 15 25 - - 0.0
17/02:00pm 2.3 -4.3 2.3 100 0.0 W 26 44 14 24 - - 0.0
17/01:30pm 2.3 -4.3 2.3 100 0.0 W 26 41 14 22 - - 0.0
17/01:00pm 2.0 -4.2 2.0 100 0.0 W 24 44 13 24 - - 0.0
17/12:30pm 1.7 -5.0 1.7 100 0.0 W 26 43 14 23 - - 0.0
17/12:00pm 2.0 -3.5 2.0 100 0.0 W 20 33 11 18 - - 0.0
17/11:30am 1.8 -4.1 1.8 100 0.0 W 22 39 12 21 - - 0.0
17/11:00am 1.8 -4.8 1.8 100 0.0 W 26 43 14 23 - - 0.0
17/10:30am 2.2 -4.4 2.2 100 0.0 W 26 43 14 23 - - 0.0
17/10:00am 1.6 -4.3 1.6 100 0.0 W 22 39 12 21 - - 0.0
17/09:30am 1.3 -5.0 1.3 100 0.0 W 24 39 13 21 - - 0.0
17/09:00am 1.3 -4.3 1.3 100 0.0 W 20 44 11 24 - - 1.4
17/08:30am 1.3 -4.7 1.3 100 0.0 W 22 39 12 21 - - 1.4
17/08:00am 1.2 -5.2 1.2 100 0.0 W 24 37 13 20 - - 1.4
17/07:30am 1.3 -4.3 1.3 100 0.0 W 20 33 11 18 - - 1.4
17/07:00am 1.4 -5.7 1.4 100 0.0 W 28 46 15 25 - - 1.4
17/06:31am 1.6 -5.5 1.6 100 0.0 W 28 48 15 26 - - 1.4
17/06:30am 1.6 -5.1 1.6 100 0.0 W 26 44 14 24 - - 1.4
17/06:00am 1.6 -3.9 1.6 100 0.0 W 20 35 11 19 - - 1.4

Latest Capital City Observations: Canberra | Sydney | Melbourne | Brisbane | Adelaide | Perth | Hobart | Darwin

Other formats

Comma delimited format used in spreadsheet applications
http://www.bom.gov.au/fwo/IDN60903/IDN60903.95916.axf

JavaScript Object Notation format (JSON) in row-major order
http://www.bom.gov.au/fwo/IDN60903/IDN60903.95916.json

Data quality

Most of these data are generated automatically and are frequently updated. Quality checks on data are not normally performed. It is possible for incorrect values to appear. Refer to information at About Latest Weather Observations and please check the disclaimer before using these data.